Weather History for Colby, KS

Change the Weather History Date:

Monday, March 18, 2013

  Actual Average (KGLD) Record (KGLD)
Temperature  
Mean Temperature 38 °F 41 °F  
Max Temperature 53 °F 55 °F 88 °F (1907)
Min Temperature 23 °F 27 °F -5 °F (1896)
Degree Days  
Heating Degree Days 27 24  
Month to date heating degree days 472  
Since 1 July heating degree days 4889  
Cooling Degree Days 0 0  
Month to date cooling degree days 0  
Year to date cooling degree days 0  
Moisture  
Dew Point 23 °F    
Average Humidity 60    
Maximum Humidity 100    
Minimum Humidity 22    
Precipitation  
Precipitation 0.00 in 0.04 in 0.94 in (1984)
Month to date precipitation 0.56  
Year to date precipitation 1.43  
Snow  
Snow 0.00 in 0.20 in - ()
Month to date snowfall 3.6  
Since 1 July snowfall 27.6  
Snow Depth -    
Sea Level Pressure  
Sea Level Pressure 29.91 in    
Wind  
Wind Speed 12 mph (NNW)    
Max Wind Speed 26 mph    
Max Gust Speed 32 mph    
Visibility 10 miles    
Events      
T = Trace of Precipitation, MM = Missing Value Source: NWS Daily Summary

Daily Weather History Graph

Daily Weather History Graph

Search for Another Location

Airport:

Trip Planner

Search our weather history database for the weather conditions in past years. The results will help you decide how hot, cold, wet, or windy it might be!

Date:

Astronomy

Mar. 18, 2013 Rise Set
Actual Time 7:50 AM CDT 7:54 PM CDT
Civil Twilight 7:23 AM CDT 8:21 PM CDT
Nautical Twilight 6:52 AM CDT 8:52 PM CDT
Astronomical Twilight 6:20 AM CDT 9:24 PM CDT
Moon 11:53 AM CDT (3/18) 1:53 AM CDT (3/18)
Length of Visible Light 12h 57m
Length of Day
12h 04m
Waxing Crescent, 41% of the Moon is Illuminated
Mar 18
Waxing Crescent
Mar 19
First Quarter
Mar 27
Full
Apr 2
Last Quarter
Apr 10
New

Hourly Weather History & Observations

Time (CDT) Temp. Windchill Dew Point Humidity Pressure Visibility Wind Dir Wind Speed Gust Speed Precip Events Conditions
12:15 AM 37.4 °F 31.4 °F 37.4 °F 100% 29.78 in 10.0 mi North 8.1 mph - N/A   Overcast
12:35 AM 37.4 °F 29.3 °F 37.4 °F 100% 29.80 in 7.0 mi NNW 12.7 mph - N/A   Overcast
12:55 AM 37.4 °F 28.2 °F 35.6 °F 93% 29.81 in 10.0 mi NNW 16.1 mph 21.9 mph N/A   Overcast
1:15 AM 37.4 °F 25.6 °F 32.0 °F 81% 29.82 in 10.0 mi NW 26.5 mph 31.1 mph N/A   Overcast
1:35 AM 35.6 °F 23.7 °F 32.0 °F 87% 29.82 in 10.0 mi NW 24.2 mph 29.9 mph N/A   Mostly Cloudy
1:55 AM 35.6 °F 24.0 °F 30.2 °F 81% 29.83 in 10.0 mi NNW 23.0 mph 29.9 mph N/A   Scattered Clouds
2:15 AM 33.8 °F 23.2 °F 30.2 °F 87% 29.85 in 10.0 mi NNW 17.3 mph 24.2 mph N/A   Clear
2:35 AM 33.8 °F 23.2 °F 30.2 °F 87% 29.87 in 10.0 mi NNW 17.3 mph - N/A   Clear
2:55 AM 32.0 °F 21.6 °F 28.4 °F 87% 29.88 in 10.0 mi NNW 15.0 mph - N/A   Clear
3:15 AM 32.0 °F 23.0 °F 28.4 °F 87% 29.88 in 10.0 mi NW 11.5 mph - N/A   Clear
3:35 AM 32.0 °F 23.6 °F 28.4 °F 87% 29.88 in 10.0 mi NW 10.4 mph - N/A   Clear
3:55 AM 30.2 °F 21.3 °F 28.4 °F 93% 29.89 in 10.0 mi WNW 10.4 mph - N/A   Clear
4:15 AM 28.4 °F 19.7 °F 26.6 °F 93% 29.88 in 10.0 mi NW 9.2 mph - N/A   Clear
4:35 AM 28.4 °F 19.7 °F 28.4 °F 100% 29.89 in 10.0 mi NW 9.2 mph - N/A   Clear
4:55 AM 28.4 °F 19.7 °F 26.6 °F 93% 29.89 in 10.0 mi WNW 9.2 mph - N/A   Clear
5:15 AM 28.4 °F 19.1 °F 26.6 °F 93% 29.89 in 10.0 mi WNW 10.4 mph - N/A   Clear
5:35 AM 26.6 °F 16.2 °F 26.6 °F 100% 29.90 in 10.0 mi WNW 11.5 mph - N/A   Clear
5:55 AM 28.4 °F 19.1 °F 26.6 °F 93% 29.90 in 10.0 mi WNW 10.4 mph - N/A   Clear
6:15 AM 26.6 °F 16.8 °F 24.8 °F 93% 29.90 in 10.0 mi West 10.4 mph - N/A   Clear
6:35 AM 24.8 °F 16.1 °F 24.8 °F 100% 29.91 in 10.0 mi West 8.1 mph - N/A   Clear
6:55 AM 23.0 °F 14.7 °F 23.0 °F 100% 29.90 in 10.0 mi West 6.9 mph - N/A   Clear
7:15 AM 23.0 °F 13.9 °F 23.0 °F 100% 29.90 in 10.0 mi West 8.1 mph - N/A   Clear
7:35 AM 23.0 °F 12.4 °F 23.0 °F 100% 29.91 in 10.0 mi West 10.4 mph - N/A   Clear
7:55 AM 23.0 °F 13.1 °F 21.2 °F 93% 29.91 in 10.0 mi West 9.2 mph - N/A   Clear
8:15 AM 23.0 °F 13.1 °F 23.0 °F 100% 29.92 in 10.0 mi West 9.2 mph - N/A   Clear
8:35 AM 26.6 °F 17.5 °F 24.8 °F 93% 29.92 in 10.0 mi West 9.2 mph - N/A   Clear
8:55 AM 30.2 °F 21.9 °F 26.6 °F 86% 29.93 in 10.0 mi WNW 9.2 mph - N/A   Clear
9:15 AM 32.0 °F 24.2 °F 28.4 °F 87% 29.94 in 10.0 mi West 9.2 mph - N/A   Clear
9:35 AM 33.8 °F 25.3 °F 28.4 °F 81% 29.95 in 10.0 mi West 11.5 mph - N/A   Clear
9:55 AM 35.6 °F 26.6 °F 28.4 °F 75% 29.95 in 10.0 mi WNW 13.8 mph - N/A   Clear
10:15 AM 37.4 °F 28.5 °F 26.6 °F 65% 29.95 in 10.0 mi NW 15.0 mph - N/A   Clear
10:35 AM 39.2 °F 31.6 °F 24.8 °F 56% 29.96 in 10.0 mi NW 12.7 mph - N/A   Clear
10:55 AM 41.0 °F 32.8 °F 23.0 °F 49% 29.96 in 10.0 mi NW 16.1 mph 23.0 mph N/A   Clear
11:15 AM 42.8 °F 36.2 °F 23.0 °F 46% 29.97 in 10.0 mi NW 12.7 mph 20.7 mph N/A   Clear
11:35 AM 44.6 °F 37.4 °F 21.2 °F 39% 29.96 in 10.0 mi NW 16.1 mph - N/A   Clear
11:55 AM 44.6 °F 36.6 °F 19.4 °F 37% 29.96 in 10.0 mi NW 19.6 mph 24.2 mph N/A   Clear
12:15 PM 46.4 °F 39.5 °F 19.4 °F 34% 29.96 in 10.0 mi NW 17.3 mph 25.3 mph N/A   Clear
12:35 PM 46.4 °F 39.2 °F 19.4 °F 34% 29.96 in 10.0 mi NNW 18.4 mph 23.0 mph N/A   Clear
12:55 PM 46.4 °F 39.8 °F 19.4 °F 34% 29.96 in 10.0 mi North 16.1 mph 24.2 mph N/A   Clear
1:15 PM 48.2 °F - 17.6 °F 30% 29.97 in 10.0 mi NW 12.7 mph 25.3 mph N/A   Clear
1:35 PM 50.0 °F - 17.6 °F 28% 29.97 in 10.0 mi NW 15.0 mph 25.3 mph N/A   Clear
1:55 PM 50.0 °F - 17.6 °F 28% 29.96 in 10.0 mi NW 15.0 mph 20.7 mph N/A   Clear
2:15 PM 50.0 °F - 17.6 °F 28% 29.95 in 10.0 mi NNW 13.8 mph 27.6 mph N/A   Clear
2:35 PM 50.0 °F - 17.6 °F 28% 29.94 in 10.0 mi NW 13.8 mph 32.2 mph N/A   Clear
2:55 PM 50.0 °F - 17.6 °F 28% 29.93 in 10.0 mi NW 16.1 mph 20.7 mph N/A   Clear
3:15 PM 50.0 °F - 17.6 °F 28% 29.93 in 10.0 mi NNW 13.8 mph 20.7 mph N/A   Clear
3:35 PM 51.8 °F - 17.6 °F 26% 29.92 in 10.0 mi NNW 11.5 mph 20.7 mph N/A   Scattered Clouds
3:55 PM 51.8 °F - 17.6 °F 26% 29.91 in 10.0 mi NW 12.7 mph 18.4 mph N/A   Scattered Clouds
4:15 PM 51.8 °F - 15.8 °F 24% 29.90 in 10.0 mi NW 11.5 mph 18.4 mph N/A   Scattered Clouds
4:35 PM 51.8 °F - 14.0 °F 22% 29.90 in 10.0 mi NNW 5.8 mph 18.4 mph N/A   Scattered Clouds
4:55 PM 53.6 °F - 17.6 °F 24% 29.89 in 10.0 mi North 12.7 mph - N/A   Mostly Cloudy
5:15 PM 53.6 °F - 17.6 °F 24% 29.89 in 10.0 mi NNW 9.2 mph 21.9 mph N/A   Mostly Cloudy
5:35 PM 51.8 °F - 14.0 °F 22% 29.89 in 10.0 mi NNE 4.6 mph 16.1 mph N/A   Overcast
5:55 PM 50.0 °F - 17.6 °F 28% 29.89 in 10.0 mi ENE 6.9 mph - N/A   Overcast
6:15 PM 50.0 °F - 17.6 °F 28% 29.88 in 10.0 mi East 4.6 mph - N/A   Overcast
6:35 PM 50.0 °F - 17.6 °F 28% 29.90 in 10.0 mi East 8.1 mph - N/A   Overcast
6:55 PM 50.0 °F - 19.4 °F 30% 29.90 in 10.0 mi East 4.6 mph - N/A   Overcast
7:35 PM 46.4 °F 42.9 °F 19.4 °F 34% 29.90 in 10.0 mi ENE 6.9 mph - N/A   Overcast
7:55 PM 44.6 °F 39.2 °F 21.2 °F 39% 29.92 in 10.0 mi NE 10.4 mph - N/A   Overcast
8:15 PM 44.6 °F 43.1 °F 19.4 °F 37% 29.92 in 10.0 mi NW 3.5 mph - N/A   Overcast
8:35 PM 44.6 °F 40.2 °F 19.4 °F 37% 29.91 in 10.0 mi NE 8.1 mph - N/A   Overcast
8:55 PM 42.8 °F 37.0 °F 19.4 °F 39% 29.92 in 10.0 mi East 10.4 mph - N/A   Scattered Clouds
9:15 PM 39.2 °F 33.0 °F 19.4 °F 45% 29.92 in 10.0 mi East 9.2 mph - N/A   Scattered Clouds
9:35 PM 39.2 °F 33.0 °F 21.2 °F 49% 29.94 in 10.0 mi East 9.2 mph - N/A   Mostly Cloudy
9:55 PM 41.0 °F 35.2 °F 21.2 °F 45% 29.93 in 10.0 mi East 9.2 mph - N/A   Overcast
10:15 PM 41.0 °F 34.3 °F 21.2 °F 45% 29.93 in 10.0 mi ESE 11.5 mph - N/A   Overcast
10:35 PM 39.2 °F 33.0 °F 23.0 °F 52% 29.93 in 10.0 mi ESE 9.2 mph - N/A   Mostly Cloudy
10:55 PM 37.4 °F 30.3 °F 23.0 °F 56% 29.95 in 10.0 mi ESE 10.4 mph - N/A   Scattered Clouds
11:15 PM 39.2 °F 33.0 °F 23.0 °F 52% 29.96 in 10.0 mi East 9.2 mph - N/A   Overcast
11:35 PM 37.4 °F 30.3 °F 23.0 °F 56% 29.97 in 10.0 mi ENE 10.4 mph - N/A   Mostly Cloudy
11:55 PM 37.4 °F 29.3 °F 23.0 °F 56% 29.98 in 10.0 mi ENE 12.7 mph - N/A   Mostly Cloudy